Time;durP1;ratioP1;P1;durP2;ratioP2;P2;SDS_P1;SDS_P2;PMS_P1;PMS_P2;Temp;Humidity;BMP_temperature;BMP_pressure;BME280_temperature;BME280_humidity;BME280_pressure;Samples;Min_cycle;Max_cycle;Signal;HPM_P1;HPM_P2
2022/01/10 00:01:11;;;;;;;22.08;12.30;;;;;;;3.13;58.30;99148.44;4415814;32;35126;-81
2022/01/10 00:03:40;;;;;;;15.02;10.48;;;;;;;3.31;57.62;99144.44;4416334;32;35087;-81
2022/01/10 00:06:07;;;;;;;20.67;11.60;;;;;;;3.37;57.43;99142.19;4415985;32;32800;-81
2022/01/10 00:08:37;;;;;;;19.30;12.18;;;;;;;3.19;57.73;99138.31;4400165;32;34684;-82
2022/01/10 00:11:05;;;;;;;13.98;11.68;;;;;;;3.15;57.84;99139.47;4403495;32;34247;-81
2022/01/10 00:13:32;;;;;;;13.38;8.50;;;;;;;3.40;57.09;99146.38;4430208;32;33763;-81
2022/01/10 00:16:00;;;;;;;14.10;9.05;;;;;;;3.33;57.31;99140.72;4416324;32;34043;-81
2022/01/10 00:18:28;;;;;;;15.43;9.68;;;;;;;3.14;57.83;99143.06;4415974;32;33090;-81
2022/01/10 00:20:56;;;;;;;17.75;10.27;;;;;;;3.27;57.52;99140.34;4430029;32;35668;-81
2022/01/10 00:23:23;;;;;;;12.00;7.30;;;;;;;3.25;57.55;99140.50;4416324;32;34698;-81
2022/01/10 00:25:51;;;;;;;17.60;8.88;;;;;;;3.15;57.76;99142.09;4387707;32;31814;-81
2022/01/10 00:28:18;;;;;;;11.40;8.05;;;;;;;2.93;58.31;99152.53;4414793;32;33427;-81
2022/01/10 00:30:46;;;;;;;21.40;11.12;;;;;;;3.16;57.79;99145.56;4403225;32;35753;-81
2022/01/10 00:33:14;;;;;;;17.42;10.45;;;;;;;3.35;57.18;99157.25;4400985;32;34712;-82
2022/01/10 00:35:41;;;;;;;12.45;9.23;;;;;;;3.12;57.87;99160.72;4403429;32;33139;-81
2022/01/10 00:38:09;;;;;;;17.10;9.80;;;;;;;3.24;57.46;99159.00;4402838;32;32971;-81
2022/01/10 00:40:36;;;;;;;14.57;10.70;;;;;;;3.35;57.10;99151.12;4400710;32;35452;-80
2022/01/10 00:43:04;;;;;;;15.63;10.25;;;;;;;3.31;57.00;99154.97;4427345;32;35093;-81
2022/01/10 00:45:32;;;;;;;12.37;10.93;;;;;;;3.28;57.10;99156.03;4403309;32;33166;-81
2022/01/10 00:48:00;;;;;;;22.02;10.40;;;;;;;3.27;57.13;99156.97;4414994;32;33822;-81
2022/01/10 00:50:28;;;;;;;9.63;8.20;;;;;;;3.30;57.09;99158.53;4402836;32;34910;-82
2022/01/10 00:52:57;;;;;;;17.77;9.90;;;;;;;3.28;57.21;99157.78;4405482;32;32436;-81
2022/01/10 00:55:25;;;;;;;15.10;8.10;;;;;;;3.41;56.80;99154.13;4414829;32;33348;-81
2022/01/10 00:57:52;;;;;;;14.40;10.05;;;;;;;3.39;56.75;99158.69;4415806;32;33640;-81
2022/01/10 01:00:20;;;;;;;16.40;9.88;;;;;;;3.30;57.12;99158.53;4415648;32;37155;-81
2022/01/10 01:02:49;;;;;;;;;;;;;;;3.27;57.13;99156.13;4402623;32;33903;-81
2022/01/10 01:05:19;;;;;;;17.00;9.77;;;;;;;3.26;56.95;99163.19;4402102;32;32228;-81
2022/01/10 01:07:47;;;;;;;23.23;11.40;;;;;;;3.24;56.98;99166.88;4429407;32;34382;-81
2022/01/10 01:13:04;;;;;;;16.85;10.18;;;;;;;3.19;57.06;99171.63;4423876;32;32230;-81
2022/01/10 01:15:44;;;;;;;23.58;10.43;;;;;;;3.16;57.29;99166.59;4415744;32;32773;-81
2022/01/10 01:18:20;;;;;;;17.33;9.80;;;;;;;3.26;56.80;99171.06;4414938;32;34274;-81
2022/01/10 01:26:22;;;;;;;18.90;9.80;;;;;;;3.15;57.34;99175.44;4406850;32;32777;-80
2022/01/10 01:28:49;;;;;;;16.87;12.00;;;;;;;2.99;57.92;99177.50;4417150;32;32683;-81
2022/01/10 01:31:17;;;;;;;14.73;9.85;;;;;;;3.20;57.71;99176.78;4429941;32;34645;-81
2022/01/10 01:33:45;;;;;;;12.20;9.50;;;;;;;3.05;58.13;99171.81;4431401;32;34635;-81
2022/01/10 01:36:12;;;;;;;14.63;9.75;;;;;;;3.11;57.90;99173.97;4414268;32;33287;-80
2022/01/10 01:38:40;;;;;;;14.57;11.43;;;;;;;3.05;57.98;99174.44;4415946;32;33831;-81
2022/01/10 01:41:56;;;;;;;16.73;10.55;;;;;;;2.82;58.95;99175.25;4416322;32;35734;-81
2022/01/10 01:43:59;;;;;;;16.17;11.55;;;;;;;3.01;58.72;99179.06;4411936;32;34339;-81
2022/01/10 01:46:27;;;;;;;16.83;10.52;;;;;;;3.00;58.69;99173.94;4414815;32;33445;-81
2022/01/10 01:48:55;;;;;;;;;;;;;;;3.00;58.78;99185.28;4417351;32;34242;-81
2022/01/10 01:51:24;;;;;;;20.10;9.50;;;;;;;3.24;58.04;99180.84;4417215;32;34948;-81
2022/01/10 01:53:52;;;;;;;17.05;10.85;;;;;;;3.11;58.33;99181.84;4417221;32;34641;-80
2022/01/10 01:56:21;;;;;;;15.13;8.77;;;;;;;3.20;58.23;99183.81;4402247;32;33493;-81
2022/01/10 01:58:54;;;;;;;17.10;10.55;;;;;;;3.24;58.07;99180.84;4416860;32;33151;-81
2022/01/10 02:01:23;;;;;;;16.02;10.82;;;;;;;3.26;58.01;99180.75;4429192;32;35943;-81
2022/01/10 02:03:52;;;;;;;16.50;10.52;;;;;;;3.12;58.45;99181.75;4404120;32;34509;-80
2022/01/10 02:06:20;;;;;;;11.73;8.95;;;;;;;3.26;58.03;99175.47;4414971;32;32507;-80
2022/01/10 02:08:48;;;;;;;18.77;10.57;;;;;;;3.19;58.27;99183.00;4430303;32;33682;-81
2022/01/10 02:11:16;;;;;;;17.27;9.90;;;;;;;3.26;58.11;99186.84;4402419;32;34635;-81
2022/01/10 02:13:44;;;;;;;17.83;11.77;;;;;;;3.30;57.93;99183.03;4430595;32;34431;-80
2022/01/10 02:16:19;;;;;;;18.62;11.65;;;;;;;3.38;57.73;99183.28;4416043;32;32835;-80
2022/01/10 02:18:49;;;;;;;17.98;9.70;;;;;;;3.38;57.79;99179.81;4403576;32;33130;-81
2022/01/10 02:21:16;;;;;;;20.85;12.05;;;;;;;3.31;57.74;99174.19;4415161;32;35117;-81
2022/01/10 02:23:44;;;;;;;14.27;9.75;;;;;;;3.18;58.27;99180.47;4404826;32;34817;-80
2022/01/10 02:26:13;;;;;;;20.33;11.80;;;;;;;3.42;57.55;99182.09;4402589;32;32964;-81
2022/01/10 02:28:42;;;;;;;17.48;10.70;;;;;;;3.31;57.77;99179.44;4404124;32;33499;-81
2022/01/10 02:31:09;;;;;;;21.80;11.10;;;;;;;3.36;57.62;99179.94;4427531;32;35263;-81
2022/01/10 02:33:37;;;;;;;;;;;;;;;3.47;57.42;99181.75;4404071;32;34301;-80
2022/01/10 02:36:24;;;;;;;16.87;9.98;;;;;;;3.51;57.21;99168.25;4435206;27;33294;-76
2022/01/10 02:38:57;;;;;;;14.52;10.45;;;;;;;3.15;58.06;99180.69;4406018;32;33494;-76
2022/01/10 02:41:32;;;;;;;20.48;10.55;;;;;;;3.45;57.27;99175.78;4403319;32;34536;-76
2022/01/10 02:44:06;;;;;;;13.55;9.60;;;;;;;3.50;57.00;99181.53;4416877;32;35352;-76
2022/01/10 02:46:37;;;;;;;19.37;9.45;;;;;;;3.48;56.92;99186.91;4414000;32;34122;-77
2022/01/10 02:49:22;;;;;;;25.65;11.30;;;;;;;3.46;56.92;99183.56;4416426;32;32889;-76
2022/01/10 02:51:57;;;;;;;13.20;11.27;;;;;;;3.55;56.56;99182.88;4417423;32;37028;-76
2022/01/10 02:54:26;;;;;;;15.60;11.48;;;;;;;3.48;56.65;99179.03;4416682;32;32949;-76
2022/01/10 02:56:57;;;;;;;13.45;9.10;;;;;;;3.30;57.15;99175.12;4401330;32;33209;-77
2022/01/10 02:59:28;;;;;;;21.02;10.57;;;;;;;3.49;56.79;99180.69;4430366;32;33343;-76
2022/01/10 03:01:57;;;;;;;18.85;12.10;;;;;;;3.61;56.37;99184.19;4415894;32;34678;-76
2022/01/10 03:04:26;;;;;;;22.42;11.43;;;;;;;3.62;56.25;99188.50;4415285;32;33624;-77
2022/01/10 03:07:21;;;;;;;15.80;11.65;;;;;;;3.59;56.26;99189.56;4428857;32;33016;-76
2022/01/10 03:09:50;;;;;;;16.67;10.23;;;;;;;3.54;56.44;99193.50;4392039;32;32661;-76
2022/01/10 03:12:23;;;;;;;20.12;11.18;;;;;;;3.60;56.29;99190.41;4417142;32;34381;-76
2022/01/10 03:14:51;;;;;;;15.30;9.90;;;;;;;3.49;56.53;99193.03;4403870;32;34114;-76
2022/01/10 03:17:39;;;;;;;;;;;;;;;3.55;56.40;99200.44;4408669;32;33513;-76
2022/01/10 03:20:28;;;;;;;16.52;9.45;;;;;;;3.46;56.58;99199.34;4419271;32;34168;-76
2022/01/10 03:22:55;;;;;;;24.42;12.63;;;;;;;3.54;56.44;99199.59;4413054;32;34827;-76
2022/01/10 03:25:29;;;;;;;17.83;9.55;;;;;;;3.52;56.60;99206.75;4417426;32;34115;-76
2022/01/10 03:28:17;;;;;;;20.12;11.77;;;;;;;3.43;56.96;99210.06;4393269;32;33327;-76
2022/01/10 03:30:46;;;;;;;20.02;10.23;;;;;;;3.50;56.93;99202.59;4415359;32;33316;-76
2022/01/10 03:33:18;;;;;;;19.45;9.27;;;;;;;3.52;56.81;99206.75;4416490;32;35561;-76
2022/01/10 03:35:49;;;;;;;17.33;12.27;;;;;;;3.55;56.64;99214.44;4404485;32;34091;-76
2022/01/10 03:38:38;;;;;;;21.73;13.27;;;;;;;3.54;56.69;99212.75;4419046;32;32535;-76
2022/01/10 03:41:07;;;;;;;23.65;12.63;;;;;;;3.53;56.63;99211.09;4404202;32;34110;-76
2022/01/10 03:43:43;;;;;;;17.58;11.27;;;;;;;3.59;56.70;99217.69;4400914;32;34951;-76
2022/01/10 03:46:21;;;;;;;22.60;13.50;;;;;;;3.44;57.01;99227.53;4406272;32;34632;-76
2022/01/10 03:48:53;;;;;;;25.60;13.62;;;;;;;3.45;57.03;99221.34;4402273;32;33183;-76
2022/01/10 03:51:22;;;;;;;18.12;10.10;;;;;;;3.61;56.69;99226.28;4416803;32;33017;-76
2022/01/10 03:53:58;;;;;;;14.82;10.98;;;;;;;3.66;56.42;99230.25;4417201;32;34803;-76
2022/01/10 03:56:31;;;;;;;19.50;10.63;;;;;;;3.68;56.44;99232.78;4416898;32;35070;-76
2022/01/10 03:59:05;;;;;;;24.10;12.18;;;;;;;3.71;56.44;99235.16;4413217;32;33167;-76
2022/01/10 04:01:38;;;;;;;22.48;13.95;;;;;;;3.78;56.20;99242.47;4430020;32;33550;-76
2022/01/10 04:04:08;;;;;;;23.40;11.60;;;;;;;3.60;56.67;99238.56;4416356;32;35191;-76
2022/01/10 04:06:57;;;;;;;18.35;13.57;;;;;;;3.76;56.36;99236.47;4430152;32;33798;-76
2022/01/10 04:09:47;;;;;;;20.85;11.02;;;;;;;3.77;56.43;99248.69;4427308;32;34138;-76
2022/01/10 04:12:36;;;;;;;22.23;13.23;;;;;;;3.82;56.34;99250.97;4430095;32;33327;-76
2022/01/10 04:15:08;;;;;;;17.05;14.18;;;;;;;3.80;56.39;99247.63;4401615;32;34992;-76
2022/01/10 04:17:57;;;;;;;27.45;13.68;;;;;;;3.58;56.87;99253.63;4404059;32;33857;-76
2022/01/10 04:20:28;;;;;;;22.25;12.25;;;;;;;3.71;56.52;99254.37;4415066;32;31564;-76
2022/01/10 04:23:00;;;;;;;25.17;13.93;;;;;;;3.69;56.66;99266.81;4416445;32;34610;-76
2022/01/10 04:25:44;;;;;;;21.27;13.45;;;;;;;3.74;56.54;99262.06;4415550;32;34667;-77
2022/01/10 04:28:15;;;;;;;16.90;12.63;;;;;;;3.77;56.61;99256.56;4416645;32;34508;-76
2022/01/10 04:31:04;;;;;;;19.23;11.00;;;;;;;3.81;56.49;99270.34;4405696;32;32853;-76
2022/01/10 04:33:36;;;;;;;17.58;13.23;;;;;;;3.83;56.47;99263.16;4416544;32;33893;-76
2022/01/10 04:36:05;;;;;;;17.12;12.45;;;;;;;3.80;56.57;99268.66;4398591;32;35011;-77
2022/01/10 04:38:53;;;;;;;23.30;11.30;;;;;;;3.87;56.53;99270.72;4402847;32;35140;-76
2022/01/10 04:41:24;;;;;;;16.15;12.32;;;;;;;3.82;56.70;99264.97;4373796;32;32731;-76
2022/01/10 04:43:52;;;;;;;20.37;12.13;;;;;;;3.73;57.00;99275.31;4375536;32;32885;-76
2022/01/10 04:46:20;;;;;;;23.75;14.13;;;;;;;3.86;56.90;99278.75;4387891;32;34044;-76
2022/01/10 04:48:50;;;;;;;14.40;11.50;;;;;;;3.87;56.71;99273.34;4398675;32;34498;-76
2022/01/10 04:51:24;;;;;;;17.73;12.37;;;;;;;3.66;57.29;99280.22;4388506;32;32268;-76
2022/01/10 04:53:55;;;;;;;17.65;13.68;;;;;;;3.94;56.57;99284.25;4410834;32;34064;-76
2022/01/10 04:56:25;;;;;;;21.95;14.43;;;;;;;3.98;56.48;99283.06;4414035;32;35296;-76
2022/01/10 04:59:12;;;;;;;19.90;12.85;;;;;;;3.91;56.60;99282.69;4392222;32;35015;-79
2022/01/10 05:01:55;;;;;;;29.05;14.30;;;;;;;3.92;56.57;99281.75;4391000;32;33259;-79
2022/01/10 05:04:25;;;;;;;20.77;14.38;;;;;;;3.67;57.51;99288.94;4412812;32;33602;-79
2022/01/10 05:06:56;;;;;;;19.48;13.88;;;;;;;3.92;56.88;99288.78;4402353;32;35570;-78
2022/01/10 05:09:26;;;;;;;24.45;14.98;;;;;;;3.89;56.87;99295.09;4400442;32;34010;-80
2022/01/10 05:11:58;;;;;;;19.25;12.13;;;;;;;3.86;56.97;99294.53;4388575;32;33385;-79
2022/01/10 05:14:28;;;;;;;30.37;15.13;;;;;;;3.80;57.24;99308.13;4415830;32;35297;-79
2022/01/10 05:17:22;;;;;;;19.15;12.55;;;;;;;3.90;57.01;99299.44;4381754;32;33578;-79
2022/01/10 05:20:22;;;;;;;23.20;13.55;;;;;;;3.99;56.70;99301.34;4404170;32;34329;-77
2022/01/10 05:23:11;;;;;;;17.75;13.23;;;;;;;3.96;56.84;99304.22;4382595;32;33597;-77
2022/01/10 05:25:41;;;;;;;24.35;13.20;;;;;;;3.97;56.84;99307.72;4388807;32;33518;-76
2022/01/10 05:28:14;;;;;;;21.30;14.13;;;;;;;4.04;56.61;99307.13;4412469;32;34317;-77
2022/01/10 05:30:43;;;;;;;21.00;14.55;;;;;;;3.89;57.04;99310.91;4374036;32;34473;-77
2022/01/10 05:33:13;;;;;;;24.20;14.32;;;;;;;3.82;57.31;99319.38;4388976;32;33060;-77
2022/01/10 05:35:46;;;;;;;18.17;11.60;;;;;;;3.90;57.04;99309.13;4401807;32;33469;-78
2022/01/10 05:38:23;;;;;;;18.80;14.60;;;;;;;3.83;57.33;99310.53;4417506;32;34554;-78
2022/01/10 05:40:53;;;;;;;23.00;14.13;;;;;;;3.82;57.36;99314.97;4401752;32;34338;-79
2022/01/10 05:43:41;;;;;;;14.93;12.02;;;;;;;3.78;57.23;99321.38;4408868;32;33432;-79
2022/01/10 05:46:21;;;;;;;19.48;13.65;;;;;;;3.95;56.81;99323.59;4418345;32;34992;-78
2022/01/10 05:48:54;;;;;;;22.20;15.65;;;;;;;3.88;56.87;99332.91;4408397;32;33811;-83
2022/01/10 05:52:02;;;;;;;27.73;13.80;;;;;;;3.75;57.07;99326.03;4421617;32;33940;-78
2022/01/10 05:54:59;;;;;;;20.92;12.30;;;;;;;3.88;56.73;99321.56;4413104;32;33208;-78
2022/01/10 05:57:27;;;;;;;24.85;14.05;;;;;;;3.85;56.56;99324.41;4403018;32;33461;-78
2022/01/10 05:59:56;;;;;;;23.95;14.98;;;;;;;3.75;56.95;99328.66;4416735;32;35018;-78
2022/01/10 06:02:44;;;;;;;20.30;14.00;;;;;;;3.89;56.53;99331.94;4414680;32;34350;-79
2022/01/10 06:05:34;;;;;;;18.85;12.48;;;;;;;3.50;57.25;99334.06;4407831;32;32055;-79
2022/01/10 06:08:24;;;;;;;27.77;14.07;;;;;;;3.72;56.67;99332.38;4406329;32;32648;-79
2022/01/10 06:11:12;;;;;;;24.92;12.82;;;;;;;3.60;56.96;99327.19;4403314;32;34237;-79
2022/01/10 06:13:43;;;;;;;20.90;13.00;;;;;;;3.80;56.29;99331.81;4425543;32;33908;-79
2022/01/10 06:16:32;;;;;;;17.25;13.00;;;;;;;3.78;56.21;99341.59;4415442;32;33251;-79
2022/01/10 06:18:59;;;;;;;22.60;16.33;;;;;;;3.89;55.88;99331.13;4431380;32;34688;-79
2022/01/10 06:21:38;;;;;;;31.33;13.68;;;;;;;3.77;55.99;99338.13;4406384;32;34738;-79
2022/01/10 06:24:27;;;;;;;28.83;15.25;;;;;;;3.96;55.59;99337.63;4412546;32;34339;-79
2022/01/10 06:26:59;;;;;;;30.98;16.17;;;;;;;3.91;55.65;99340.59;4401390;32;32887;-79
2022/01/10 06:30:08;;;;;;;30.52;15.85;;;;;;;3.83;55.78;99344.72;4427101;32;33560;-79
2022/01/10 06:33:11;;;;;;;17.98;13.55;;;;;;;3.81;55.78;99352.75;4424982;32;33511;-79
2022/01/10 06:36:00;;;;;;;26.08;15.00;;;;;;;3.72;56.09;99353.44;4414343;32;33250;-79
2022/01/10 06:38:49;;;;;;;26.27;12.95;;;;;;;3.82;55.94;99356.19;4414942;32;34793;-79
2022/01/10 06:41:22;;;;;;;24.83;14.63;;;;;;;3.88;55.75;99363.66;4400182;32;32827;-79
2022/01/10 06:43:50;;;;;;;21.70;16.33;;;;;;;3.83;56.02;99364.00;4399571;32;33908;-78
2022/01/10 06:46:58;;;;;;;23.60;15.50;;;;;;;3.91;55.85;99366.91;4415704;32;34483;-79
2022/01/10 06:49:28;;;;;;;28.90;15.70;;;;;;;3.86;55.85;99366.38;4401532;32;33082;-79
2022/01/10 06:52:17;;;;;;;29.63;14.85;;;;;;;3.88;55.79;99372.38;4412945;32;33036;-79
2022/01/10 06:54:58;;;;;;;25.90;15.40;;;;;;;3.83;55.88;99376.28;4403474;32;34340;-79
2022/01/10 06:57:47;;;;;;;20.50;15.38;;;;;;;3.86;55.96;99378.72;4416236;32;33992;-79
2022/01/10 07:00:22;;;;;;;25.30;15.35;;;;;;;3.98;55.67;99377.81;4402141;32;33623;-79
2022/01/10 07:03:10;;;;;;;16.60;12.13;;;;;;;3.92;55.88;99387.00;4406810;32;34594;-79
2022/01/10 07:05:41;;;;;;;27.37;13.85;;;;;;;3.97;55.76;99381.41;4402531;32;35201;-79
2022/01/10 07:08:14;;;;;;;15.48;12.55;;;;;;;3.97;55.64;99392.75;4414028;32;33973;-79
2022/01/10 07:11:05;;;;;;;19.50;13.00;;;;;;;4.05;55.44;99390.38;4404480;32;32598;-79
2022/01/10 07:13:40;;;;;;;18.58;10.82;;;;;;;3.95;55.60;99394.66;4389562;32;32841;-79
2022/01/10 07:16:50;;;;;;;26.62;11.43;;;;;;;4.01;55.51;99396.84;4395318;32;35130;-79
2022/01/10 07:19:28;;;;;;;18.87;13.30;;;;;;;4.08;55.30;99398.06;4415036;32;35533;-79
2022/01/10 07:22:04;;;;;;;19.08;13.85;;;;;;;4.14;55.19;99404.69;4400764;32;32802;-79
2022/01/10 07:24:33;;;;;;;22.65;13.05;;;;;;;4.16;55.26;99411.50;4386838;32;33378;-79
2022/01/10 07:27:15;;;;;;;21.52;12.98;;;;;;;4.24;55.01;99411.75;4400573;32;35766;-79
2022/01/10 07:29:52;;;;;;;23.10;14.45;;;;;;;4.14;55.14;99420.47;4401178;32;34812;-79
2022/01/10 07:32:35;;;;;;;26.73;13.18;;;;;;;4.21;55.11;99417.25;4405870;32;32630;-79
2022/01/10 07:35:06;;;;;;;14.60;12.82;;;;;;;4.40;54.66;99435.16;4389683;32;33917;-79
2022/01/10 07:37:54;;;;;;;17.62;10.82;;;;;;;4.10;55.23;99437.44;4416335;32;35549;-79
2022/01/10 07:40:24;;;;;;;21.67;11.30;;;;;;;4.09;55.30;99433.97;4401357;32;33900;-79
2022/01/10 07:42:53;;;;;;;23.08;13.77;;;;;;;4.05;55.71;99443.03;4428688;32;32890;-79
2022/01/10 07:45:41;;;;;;;18.05;12.73;;;;;;;4.36;54.80;99433.72;4402462;32;32876;-78
2022/01/10 07:48:30;;;;;;;20.55;12.82;;;;;;;4.40;54.47;99440.41;4413729;32;35381;-78
2022/01/10 07:51:03;;;;;;;29.27;13.57;;;;;;;4.16;54.65;99432.56;4403374;32;33697;-78
2022/01/10 07:53:31;;;;;;;25.50;15.23;;;;;;;4.47;53.65;99442.50;4402290;32;33660;-79
2022/01/10 07:56:00;;;;;;;22.30;14.20;;;;;;;4.51;53.65;99448.38;4414730;32;34845;-79
2022/01/10 07:58:51;;;;;;;21.62;13.52;;;;;;;4.73;53.14;99448.44;4405173;32;33765;-79
2022/01/10 08:01:41;;;;;;;23.38;13.75;;;;;;;4.82;52.92;99443.28;4417233;32;35257;-79
2022/01/10 08:04:30;;;;;;;16.85;14.60;;;;;;;4.91;52.66;99442.59;4406123;32;34425;-79
2022/01/10 08:06:58;;;;;;;;;;;;;;;4.99;52.30;99442.84;4402019;32;32729;-79
2022/01/10 08:09:49;;;;;;;21.83;12.60;;;;;;;5.03;51.92;99441.66;4403741;32;33964;-79
2022/01/10 08:12:17;;;;;;;15.15;13.48;;;;;;;5.12;51.93;99453.28;4428340;32;34416;-79
2022/01/10 08:15:06;;;;;;;20.30;13.77;;;;;;;5.08;51.60;99447.41;4402857;32;33472;-79
2022/01/10 08:17:44;;;;;;;18.80;13.15;;;;;;;5.26;51.28;99458.34;4415557;32;33204;-79
2022/01/10 08:20:32;;;;;;;23.77;12.18;;;;;;;5.02;51.46;99455.81;4427901;32;34595;-79
2022/01/10 08:23:20;;;;;;;15.25;13.73;;;;;;;5.14;51.59;99460.13;4416632;32;34470;-79
2022/01/10 08:26:10;;;;;;;22.02;12.13;;;;;;;5.06;51.39;99451.09;4402324;32;33528;-79
2022/01/10 08:28:46;;;;;;;12.05;10.65;;;;;;;5.47;50.13;99458.34;4403009;32;34158;-79
2022/01/10 08:31:54;;;;;;;30.90;14.50;;;;;;;5.49;49.66;99459.03;4417866;32;34598;-79
2022/01/10 08:34:42;;;;;;;25.05;15.05;;;;;;;5.63;49.36;99450.91;4425986;32;34190;-79
2022/01/10 08:37:51;;;;;;;25.60;11.88;;;;;;;5.52;49.40;99458.78;4410277;32;33161;-79
2022/01/10 08:40:43;;;;;;;18.98;13.73;;;;;;;5.55;49.17;99452.44;4398108;32;35297;-79
2022/01/10 08:43:32;;;;;;;16.67;12.90;;;;;;;5.10;49.92;99463.94;4412502;32;33086;-79
2022/01/10 08:46:04;;;;;;;18.90;11.15;;;;;;;5.06;49.72;99478.31;4411392;32;33660;-79
2022/01/10 08:48:53;;;;;;;22.45;12.45;;;;;;;5.69;48.33;99465.41;4416295;32;33389;-79
2022/01/10 08:51:43;;;;;;;25.98;10.63;;;;;;;5.85;48.06;99476.41;4425683;32;35297;-79
2022/01/10 08:54:22;;;;;;;19.25;13.68;;;;;;;5.83;48.48;99476.56;4425232;32;34064;-79
2022/01/10 08:57:10;;;;;;;15.70;12.02;;;;;;;5.91;47.77;99471.53;4423072;32;33841;-79
2022/01/10 08:59:55;;;;;;;15.80;12.52;;;;;;;6.09;47.62;99475.31;4413263;32;32816;-79
2022/01/10 09:02:45;;;;;;;14.75;13.05;;;;;;;5.88;48.37;99481.47;4425784;32;33880;-79
2022/01/10 09:05:15;;;;;;;21.30;13.75;;;;;;;5.87;48.42;99479.81;4412523;32;35326;-79
2022/01/10 09:08:03;;;;;;;12.93;11.60;;;;;;;6.08;48.13;99486.00;4416241;32;34438;-80
2022/01/10 09:10:34;;;;;;;12.50;11.27;;;;;;;6.37;46.78;99492.38;4400802;32;31980;-79
2022/01/10 09:13:22;;;;;;;12.30;10.90;;;;;;;6.23;46.96;99490.87;4415624;32;32757;-79
2022/01/10 09:16:14;;;;;;;14.60;10.90;;;;;;;6.50;46.45;99485.97;4413217;32;34847;-79
2022/01/10 09:19:02;;;;;;;16.37;10.30;;;;;;;6.63;46.54;99496.38;4413113;32;34075;-79
2022/01/10 09:21:35;;;;;;;10.98;9.13;;;;;;;6.44;46.72;99493.56;4412940;32;33366;-79
2022/01/10 09:24:23;;;;;;;17.35;10.50;;;;;;;6.42;46.75;99498.97;4413196;32;32710;-79
2022/01/10 09:27:13;;;;;;;14.77;11.10;;;;;;;6.24;47.13;99507.56;4406535;32;35208;-79
2022/01/10 09:29:57;;;;;;;13.35;8.05;;;;;;;6.63;46.13;99494.56;4412975;32;35047;-79
2022/01/10 09:32:46;;;;;;;12.02;10.98;;;;;;;6.46;46.77;99503.06;4411880;32;32843;-79
2022/01/10 09:35:14;;;;;;;11.52;9.45;;;;;;;6.69;45.96;99501.12;4400314;32;32769;-79
2022/01/10 09:38:02;;;;;;;8.10;6.70;;;;;;;6.57;45.90;99491.59;4432019;32;34690;-79
2022/01/10 09:40:50;;;;;;;12.13;6.75;;;;;;;6.53;46.20;99500.75;4402244;32;33709;-79
2022/01/10 09:43:21;;;;;;;9.73;6.45;;;;;;;6.46;45.27;99497.78;4414526;32;33775;-79
2022/01/10 09:46:09;;;;;;;10.40;8.00;;;;;;;6.25;45.55;99488.13;4418013;32;34182;-79
2022/01/10 09:48:46;;;;;;;8.05;5.47;;;;;;;6.45;45.90;99482.84;4403248;32;33555;-79
2022/01/10 09:51:28;;;;;;;7.62;6.93;;;;;;;7.01;44.09;99488.72;4403602;32;33019;-79
2022/01/10 09:54:36;;;;;;;10.90;7.85;;;;;;;7.07;44.11;99486.38;4403830;32;33803;-80
2022/01/10 09:57:18;;;;;;;24.25;17.60;;;;;;;7.09;45.16;99497.69;4410270;32;33591;-79
2022/01/10 09:59:50;;;;;;;44.22;32.38;;;;;;;7.02;46.15;99493.03;4403660;32;34713;-78
2022/01/10 10:02:29;;;;;;;34.25;22.55;;;;;;;7.10;45.11;99494.06;4402612;32;34349;-79
2022/01/10 10:05:03;;;;;;;16.45;14.77;;;;;;;7.12;45.72;99492.16;4415615;32;32896;-79
2022/01/10 10:07:32;;;;;;;35.55;24.52;;;;;;;7.33;44.37;99489.47;4412730;32;33242;-79
2022/01/10 10:10:11;;;;;;;45.22;32.15;;;;;;;7.45;44.88;99486.59;4403856;32;35944;-79
2022/01/10 10:12:49;;;;;;;27.60;22.42;;;;;;;7.20;45.76;99489.69;4413809;32;34481;-79
2022/01/10 10:15:39;;;;;;;23.20;19.17;;;;;;;7.33;46.12;99492.97;4415083;32;32443;-79
2022/01/10 10:18:30;;;;;;;19.62;14.00;;;;;;;7.45;45.49;99496.38;4417706;32;33816;-79
2022/01/10 10:21:00;;;;;;;14.80;13.25;;;;;;;7.19;45.38;99487.16;4415240;32;35325;-79
2022/01/10 10:23:49;;;;;;;22.15;16.48;;;;;;;7.50;46.02;99488.84;4428995;32;34119;-79
2022/01/10 10:26:25;;;;;;;31.27;19.42;;;;;;;7.57;45.54;99493.47;4428659;32;34106;-79
2022/01/10 10:28:59;;;;;;;27.53;17.07;;;;;;;7.82;45.80;99484.25;4394739;32;33567;-79
2022/01/10 10:31:32;;;;;;;13.65;10.32;;;;;;;7.96;44.90;99490.00;4412151;32;33867;-79
2022/01/10 10:34:27;;;;;;;6.25;5.53;;;;;;;7.85;45.16;99484.78;4414766;32;33821;-79
2022/01/10 10:37:07;;;;;;;13.15;10.13;;;;;;;8.08;43.48;99483.63;4416073;32;33263;-79
2022/01/10 10:39:55;;;;;;;20.67;15.25;;;;;;;8.12;44.33;99484.19;4427901;32;33721;-79
2022/01/10 10:42:28;;;;;;;15.60;13.75;;;;;;;8.33;44.02;99485.81;4414783;32;35450;-79
2022/01/10 10:44:57;;;;;;;17.50;13.27;;;;;;;8.34;44.56;99486.62;4401827;32;34329;-79
2022/01/10 10:47:45;;;;;;;18.12;13.98;;;;;;;8.10;44.37;99486.97;4415783;32;33645;-79
2022/01/10 10:50:17;;;;;;;15.93;12.70;;;;;;;8.31;44.60;99482.44;4415365;32;33652;-79
2022/01/10 10:52:50;;;;;;;11.75;10.68;;;;;;;8.38;44.15;99488.03;4415070;32;34709;-79
2022/01/10 10:55:39;;;;;;;19.70;13.05;;;;;;;8.42;44.12;99492.06;4404366;32;33589;-79
2022/01/10 10:58:28;;;;;;;19.92;15.95;;;;;;;8.50;44.10;99491.25;4400597;32;33340;-79
2022/01/10 11:01:04;;;;;;;15.60;13.82;;;;;;;8.45;44.91;99488.16;4404467;32;33358;-79
2022/01/10 11:03:40;;;;;;;13.50;11.95;;;;;;;8.25;45.51;99488.28;4404045;32;33592;-79
2022/01/10 11:06:13;;;;;;;18.25;12.77;;;;;;;8.33;45.60;99487.59;4415336;32;34794;-79
2022/01/10 11:08:44;;;;;;;24.27;12.90;;;;;;;8.25;45.25;99492.75;4415281;32;32143;-79
2022/01/10 11:11:21;;;;;;;15.40;13.20;;;;;;;8.68;44.88;99502.00;4401606;32;33445;-79
2022/01/10 11:14:05;;;;;;;12.48;11.23;;;;;;;8.51;45.29;99497.41;4416773;32;35720;-79
2022/01/10 11:16:36;;;;;;;14.32;12.85;;;;;;;8.35;45.20;99501.53;4415106;32;33445;-79
2022/01/10 11:19:26;;;;;;;16.45;12.13;;;;;;;8.37;45.23;99503.09;4404146;32;33458;-79
2022/01/10 11:22:06;;;;;;;13.07;11.77;;;;;;;8.56;44.46;99503.09;4415380;32;33362;-79
2022/01/10 11:24:49;;;;;;;18.00;10.65;;;;;;;8.50;44.92;99512.47;4415010;32;34226;-79
2022/01/10 11:27:36;;;;;;;12.00;10.80;;;;;;;8.37;45.25;99511.03;4428748;32;33812;-79
2022/01/10 11:30:44;;;;;;;14.73;12.25;;;;;;;8.22;45.12;99511.56;4410428;32;33206;-79
2022/01/10 11:33:34;;;;;;;15.40;12.50;;;;;;;8.15;45.24;99513.06;4405380;32;34086;-79
2022/01/10 11:36:09;;;;;;;12.25;10.40;;;;;;;8.45;45.54;99508.53;4402166;32;34468;-80
2022/01/10 11:38:55;;;;;;;15.43;8.73;;;;;;;8.25;44.18;99514.78;4416630;32;34446;-79
2022/01/10 11:42:19;;;;;;;4.72;4.32;;;;;;;8.91;43.38;99506.03;4405526;32;32505;-79
2022/01/10 11:45:12;;;;;;;14.25;4.05;;;;;;;9.18;39.49;99514.13;4391597;32;33283;-79
2022/01/10 11:48:01;;;;;;;9.05;5.47;;;;;;;9.08;38.71;99523.91;4392374;32;34513;-80
2022/01/10 11:50:44;;;;;;;10.45;5.15;;;;;;;9.21;38.96;99519.13;4403388;32;33301;-80
2022/01/10 11:53:30;;;;;;;4.50;4.10;;;;;;;9.38;38.04;99513.91;4412949;32;33154;-80
2022/01/10 11:56:23;;;;;;;4.70;4.28;;;;;;;9.29;37.27;99521.91;4392136;32;32797;-80
2022/01/10 11:59:22;;;;;;;4.87;4.40;;;;;;;9.02;37.35;99521.81;4399329;32;33903;-80
2022/01/10 12:01:51;;;;;;;5.62;4.90;;;;;;;9.36;36.59;99509.75;4414333;32;33918;-80
2022/01/10 12:05:02;;;;;;;4.78;4.22;;;;;;;9.39;36.91;99514.75;4427104;32;33185;-79
2022/01/10 12:07:46;;;;;;;1.95;1.73;;;;;;;9.60;36.07;99526.00;4415392;32;32835;-79
2022/01/10 12:10:34;;;;;;;3.83;3.45;;;;;;;9.44;35.75;99525.81;4393244;32;34898;-79
2022/01/10 12:13:26;;;;;;;;;;;;;;;9.14;35.21;99526.84;4412246;32;33658;-80
2022/01/10 12:16:16;;;;;;;2.25;2.05;;;;;;;9.25;33.20;99528.50;4426967;32;33311;-80
2022/01/10 12:19:04;;;;;;;;;;;;;;;9.95;33.20;99515.53;4406227;32;33437;-80
2022/01/10 12:21:51;;;;;;;2.40;2.20;;;;;;;9.41;33.31;99529.56;4403597;32;33876;-80
2022/01/10 12:24:23;;;;;;;2.08;1.87;;;;;;;9.91;30.33;99540.75;4413126;32;33274;-80
2022/01/10 12:27:09;;;;;;;2.00;1.77;;;;;;;9.38;31.25;99524.53;4405215;32;32162;-80
2022/01/10 12:29:57;;;;;;;2.03;1.92;;;;;;;9.49;32.33;99535.00;4428436;32;34907;-79